createdAt,value
2023-01-17T00:01:42.982Z,1.08
2023-01-17T00:04:30.741Z,0.90
2023-01-17T00:07:16.176Z,0.60
2023-01-17T00:09:56.985Z,0.70
2023-01-17T00:12:26.549Z,0.70
2023-01-17T00:14:57.275Z,0.60
2023-01-17T00:17:25.347Z,0.80
2023-01-17T00:20:11.154Z,0.70
2023-01-17T00:22:56.622Z,0.60
2023-01-17T00:25:45.165Z,0.55
2023-01-17T00:28:12.204Z,0.63
2023-01-17T00:30:38.872Z,0.95
2023-01-17T00:33:05.767Z,0.82
2023-01-17T00:35:32.869Z,2.17
2023-01-17T00:38:08.382Z,0.93
2023-01-17T00:40:37.347Z,1.38
2023-01-17T00:43:23.383Z,1.20
2023-01-17T00:46:09.343Z,0.75
2023-01-17T00:48:55.365Z,0.95
2023-01-17T00:51:41.340Z,1.08
2023-01-17T00:54:27.350Z,1.80
2023-01-17T00:57:13.251Z,0.90
2023-01-17T00:59:58.708Z,0.95
2023-01-17T01:02:44.709Z,1.30
2023-01-17T01:05:31.918Z,0.85
2023-01-17T01:08:17.398Z,0.68
2023-01-17T01:11:03.966Z,1.10
2023-01-17T01:13:50.949Z,1.42
2023-01-17T01:16:37.454Z,1.23
2023-01-17T01:19:24.173Z,0.65
2023-01-17T01:22:09.728Z,1.92
2023-01-17T01:24:55.220Z,1.20
2023-01-17T01:27:40.953Z,1.35
2023-01-17T01:30:27.157Z,1.98
2023-01-17T01:33:12.620Z,1.98
2023-01-17T01:35:39.421Z,1.15
2023-01-17T01:38:06.409Z,1.13
2023-01-17T01:40:33.187Z,0.95
2023-01-17T01:43:03.063Z,1.30
2023-01-17T01:45:32.258Z,1.77
2023-01-17T01:48:07.008Z,1.23
2023-01-17T01:50:36.798Z,7.38
2023-01-17T01:53:05.896Z,1.80
2023-01-17T01:55:40.355Z,1.35
2023-01-17T01:58:22.827Z,0.75
2023-01-17T02:00:50.113Z,2.05
2023-01-17T02:03:21.211Z,1.05
2023-01-17T02:05:48.372Z,0.90
2023-01-17T02:08:18.141Z,1.23
2023-01-17T02:10:44.906Z,0.80
2023-01-17T02:13:14.852Z,1.15
2023-01-17T02:16:24.557Z,1.10
2023-01-17T02:18:54.120Z,1.38
2023-01-17T02:21:28.047Z,1.80
2023-01-17T02:24:25.263Z,1.50
2023-01-17T02:27:24.919Z,2.33
2023-01-17T02:29:54.787Z,1.00
2023-01-17T02:32:35.809Z,1.13
2023-01-17T02:35:28.105Z,0.82
2023-01-17T02:38:03.955Z,3.33
2023-01-17T02:40:46.947Z,1.15
2023-01-17T02:43:15.817Z,0.82
2023-01-17T02:45:43.202Z,1.38
2023-01-17T02:48:13.308Z,0.90
2023-01-17T02:50:59.593Z,0.60
2023-01-17T02:54:00.366Z,1.45
2023-01-17T02:56:53.037Z,1.98
2023-01-17T02:59:40.389Z,1.95
2023-01-17T03:02:37.531Z,2.67
2023-01-17T03:05:10.459Z,1.50
2023-01-17T03:07:39.917Z,1.10
2023-01-17T03:10:08.222Z,5.00
2023-01-17T03:12:38.743Z,1.63
2023-01-17T03:15:13.644Z,1.13
2023-01-17T03:17:46.715Z,2.75
2023-01-17T03:20:13.542Z,0.70
2023-01-17T03:22:40.305Z,0.77
2023-01-17T03:25:07.362Z,0.85
2023-01-17T03:27:34.219Z,0.98
2023-01-17T03:30:01.824Z,3.38
2023-01-17T03:32:28.720Z,1.65
2023-01-17T03:34:55.710Z,0.80
2023-01-17T03:37:22.644Z,0.77
2023-01-17T03:39:49.395Z,1.25
2023-01-17T03:42:16.168Z,1.77
2023-01-17T03:44:43.035Z,0.90
2023-01-17T03:47:12.915Z,1.00
2023-01-17T03:49:40.078Z,1.55
2023-01-17T03:52:07.794Z,1.73
2023-01-17T03:54:34.672Z,1.80
2023-01-17T03:57:01.436Z,0.82
2023-01-17T03:59:28.118Z,0.77
2023-01-17T04:01:54.931Z,1.38
2023-01-17T04:04:21.802Z,1.17
2023-01-17T04:06:48.579Z,0.93
2023-01-17T04:09:15.287Z,0.90
2023-01-17T04:11:42.020Z,2.05
2023-01-17T04:14:08.749Z,1.17
2023-01-17T04:16:36.550Z,3.05
2023-01-17T04:19:03.355Z,0.70
2023-01-17T04:21:30.100Z,0.95
2023-01-17T04:23:56.795Z,0.80
2023-01-17T04:26:23.482Z,1.50
2023-01-17T04:28:50.273Z,1.40
2023-01-17T04:31:17.656Z,1.08
2023-01-17T04:33:44.476Z,1.35
2023-01-17T04:36:11.196Z,4.40
2023-01-17T04:38:37.941Z,3.65
2023-01-17T04:41:04.842Z,2.00
2023-01-17T04:43:31.617Z,0.80
2023-01-17T04:45:59.170Z,0.77
2023-01-17T04:48:27.202Z,0.82
2023-01-17T04:51:01.252Z,0.95
2023-01-17T04:53:28.485Z,2.30
2023-01-17T04:55:55.223Z,3.85
2023-01-17T04:58:22.515Z,2.05
2023-01-17T05:00:51.017Z,2.60
2023-01-17T05:03:21.825Z,1.55
2023-01-17T05:05:48.961Z,1.45
2023-01-17T05:08:15.657Z,1.20
2023-01-17T05:10:42.352Z,1.30
2023-01-17T05:13:09.463Z,1.77
2023-01-17T05:15:36.706Z,2.83
2023-01-17T05:18:08.465Z,3.97
2023-01-17T05:20:36.698Z,1.63
2023-01-17T05:23:03.432Z,2.13
2023-01-17T05:25:32.000Z,1.52
2023-01-17T05:28:02.430Z,1.75
2023-01-17T05:30:31.174Z,1.75
2023-01-17T05:32:59.349Z,3.00
2023-01-17T05:35:29.405Z,3.45
2023-01-17T05:37:56.573Z,3.40
2023-01-17T05:40:25.999Z,3.20
2023-01-17T05:42:55.092Z,1.92
2023-01-17T05:45:23.780Z,1.52
2023-01-17T05:47:52.252Z,3.33
2023-01-17T05:50:32.138Z,6.82
2023-01-17T05:53:02.069Z,4.40
2023-01-17T05:55:30.199Z,1.50
2023-01-17T05:57:57.191Z,6.57
2023-01-17T06:00:24.733Z,4.40
2023-01-17T06:02:54.286Z,2.65
2023-01-17T06:05:21.892Z,7.55
2023-01-17T06:07:51.535Z,2.55
2023-01-17T06:10:20.057Z,2.85
2023-01-17T06:12:47.692Z,3.45
2023-01-17T06:15:16.609Z,2.97
2023-01-17T06:17:43.423Z,1.63
2023-01-17T06:20:11.555Z,2.08
2023-01-17T06:22:38.401Z,1.40
2023-01-17T06:25:05.569Z,2.30
2023-01-17T06:27:32.289Z,7.40
2023-01-17T06:29:59.006Z,4.57
2023-01-17T06:32:25.747Z,2.00
2023-01-17T06:34:52.630Z,2.95
2023-01-17T06:37:19.412Z,3.35
2023-01-17T06:39:46.331Z,2.05
2023-01-17T06:42:13.174Z,3.95
2023-01-17T06:44:39.876Z,7.95
2023-01-17T06:47:06.635Z,6.18
2023-01-17T06:49:33.432Z,2.08
2023-01-17T06:52:00.136Z,3.20
2023-01-17T06:54:27.112Z,10.00
2023-01-17T06:56:56.620Z,9.18
2023-01-17T06:59:23.390Z,9.13
2023-01-17T07:01:50.115Z,4.28
2023-01-17T07:04:16.917Z,6.43
2023-01-17T07:06:43.713Z,4.78
2023-01-17T07:09:10.528Z,3.20
2023-01-17T07:11:37.198Z,3.22
2023-01-17T07:14:03.937Z,3.08
2023-01-17T07:16:30.811Z,2.83
2023-01-17T07:18:58.152Z,4.90
2023-01-17T07:21:24.911Z,9.32
2023-01-17T07:23:51.680Z,3.40
2023-01-17T07:26:18.575Z,4.18
2023-01-17T07:28:45.479Z,4.18
2023-01-17T07:31:12.254Z,4.20
2023-01-17T07:33:39.040Z,4.15
2023-01-17T07:36:07.730Z,3.75
2023-01-17T07:38:34.897Z,4.25
2023-01-17T07:41:01.849Z,8.95
2023-01-17T07:43:28.661Z,7.15
2023-01-17T07:45:55.834Z,10.95
2023-01-17T07:48:24.105Z,4.55
2023-01-17T07:50:55.505Z,7.53
2023-01-17T07:53:27.105Z,9.93
2023-01-17T07:55:54.304Z,3.65
2023-01-17T07:58:22.339Z,10.88
2023-01-17T08:00:49.364Z,6.90
2023-01-17T08:03:18.029Z,3.85
2023-01-17T08:05:57.624Z,4.97
2023-01-17T08:08:28.654Z,5.82
2023-01-17T08:10:55.480Z,3.78
2023-01-17T08:13:22.835Z,4.90
2023-01-17T08:15:50.232Z,3.60
2023-01-17T08:18:17.950Z,4.30
2023-01-17T08:20:45.341Z,4.55
2023-01-17T08:23:12.328Z,13.02
2023-01-17T08:25:39.913Z,6.80
2023-01-17T08:28:06.739Z,6.28
2023-01-17T08:30:33.722Z,7.82
2023-01-17T08:33:00.667Z,4.35
2023-01-17T08:35:28.757Z,4.72
2023-01-17T08:38:04.703Z,2.72
2023-01-17T08:40:35.000Z,5.03
2023-01-17T08:43:01.890Z,3.67
2023-01-17T08:45:29.183Z,4.05
2023-01-17T08:47:58.569Z,3.97
2023-01-17T08:50:26.062Z,7.57
2023-01-17T08:53:00.851Z,4.97
2023-01-17T08:55:27.958Z,3.95
2023-01-17T08:57:56.041Z,5.13
2023-01-17T09:00:23.103Z,3.63
2023-01-17T09:02:53.014Z,5.07
2023-01-17T09:05:20.046Z,4.70
2023-01-17T09:07:46.855Z,12.63
2023-01-17T09:10:13.652Z,7.32
2023-01-17T09:12:40.502Z,5.68
2023-01-17T09:15:07.783Z,4.85
2023-01-17T09:17:36.773Z,4.35
2023-01-17T09:20:03.632Z,3.65
2023-01-17T09:22:30.458Z,6.40
2023-01-17T09:24:57.608Z,2.75
2023-01-17T09:27:24.446Z,3.05
2023-01-17T09:29:51.240Z,4.70
2023-01-17T09:32:17.965Z,3.70
2023-01-17T09:34:44.722Z,3.72
2023-01-17T09:37:11.510Z,3.28
2023-01-17T09:39:38.337Z,3.05
2023-01-17T09:42:30.750Z,5.95
2023-01-17T09:44:58.196Z,3.75
2023-01-17T09:47:47.508Z,2.42
2023-01-17T09:50:36.585Z,7.15
2023-01-17T09:53:07.627Z,3.20
2023-01-17T09:55:41.638Z,2.30
2023-01-17T09:58:18.477Z,3.58
2023-01-17T10:01:05.093Z,3.00
2023-01-17T10:04:13.395Z,2.95
2023-01-17T10:06:51.193Z,3.17
2023-01-17T10:09:37.589Z,2.20
2023-01-17T10:12:29.629Z,2.30
2023-01-17T10:15:30.648Z,3.63
2023-01-17T10:18:29.235Z,1.77
2023-01-17T10:21:04.909Z,2.78
2023-01-17T10:23:50.352Z,2.13
2023-01-17T10:26:27.116Z,3.15
2023-01-17T10:29:00.538Z,1.67
2023-01-17T10:31:34.039Z,1.05
2023-01-17T10:34:13.085Z,1.90
2023-01-17T10:36:48.524Z,1.50
2023-01-17T10:39:21.333Z,2.25
2023-01-17T10:42:00.791Z,3.70
2023-01-17T10:44:30.492Z,2.15
2023-01-17T10:47:07.134Z,1.42
2023-01-17T10:49:34.220Z,1.20
2023-01-17T10:52:11.550Z,2.25
2023-01-17T10:55:05.728Z,1.38
2023-01-17T10:57:45.049Z,2.70
2023-01-17T11:00:28.363Z,2.90
2023-01-17T11:02:55.557Z,1.55
2023-01-17T11:05:32.678Z,2.20
2023-01-17T11:08:05.225Z,3.70
2023-01-17T11:10:38.031Z,1.52
2023-01-17T11:13:07.991Z,1.33
2023-01-17T11:15:39.884Z,1.27
2023-01-17T11:18:15.689Z,2.03
2023-01-17T11:20:43.332Z,2.38
2023-01-17T11:23:33.233Z,1.25
2023-01-17T11:26:07.664Z,2.97
2023-01-17T11:28:36.890Z,2.40
2023-01-17T11:31:25.936Z,1.50
2023-01-17T11:34:07.979Z,1.67
2023-01-17T11:36:34.861Z,2.95
2023-01-17T11:39:18.511Z,1.52
2023-01-17T11:41:47.730Z,2.50
2023-01-17T11:44:27.962Z,1.48
2023-01-17T11:47:14.971Z,1.73
2023-01-17T11:49:44.388Z,1.17
2023-01-17T11:52:25.329Z,1.23
2023-01-17T11:54:55.169Z,1.30
2023-01-17T11:57:27.655Z,1.10
2023-01-17T12:00:20.448Z,2.28
2023-01-17T12:03:05.396Z,4.55
2023-01-17T12:05:48.143Z,4.47
2023-01-17T12:08:43.661Z,1.80
2023-01-17T12:12:04.346Z,2.35
2023-01-17T12:14:43.878Z,2.00
2023-01-17T12:17:27.301Z,0.98
2023-01-17T12:20:01.486Z,3.40
2023-01-17T12:22:52.484Z,2.25
2023-01-17T12:25:57.662Z,2.28
2023-01-17T12:28:39.692Z,3.50
2023-01-17T12:31:19.365Z,1.70
2023-01-17T12:34:11.952Z,1.55
2023-01-17T12:37:00.375Z,1.52
2023-01-17T12:39:36.325Z,1.60
2023-01-17T12:42:13.549Z,2.08
2023-01-17T12:45:11.922Z,1.30
2023-01-17T12:47:45.419Z,2.17
2023-01-17T12:50:37.880Z,1.17
2023-01-17T12:53:20.227Z,2.05
2023-01-17T12:55:58.498Z,3.95
2023-01-17T12:58:31.062Z,1.60
2023-01-17T13:01:43.160Z,1.50
2023-01-17T13:04:31.674Z,2.80
2023-01-17T13:07:17.434Z,3.25
2023-01-17T13:09:55.357Z,2.50
2023-01-17T13:12:22.675Z,2.53
2023-01-17T13:14:49.635Z,2.25
2023-01-17T13:17:26.844Z,1.23
2023-01-17T13:20:01.250Z,1.40
2023-01-17T13:22:29.011Z,3.67
2023-01-17T13:25:17.352Z,1.50
2023-01-17T13:28:10.432Z,1.00
2023-01-17T13:31:10.505Z,2.35
2023-01-17T13:34:12.331Z,1.25
2023-01-17T13:36:39.037Z,2.15
2023-01-17T13:39:29.757Z,1.40
2023-01-17T13:42:28.193Z,2.33
2023-01-17T13:44:55.856Z,1.20
2023-01-17T13:47:25.750Z,1.98
2023-01-17T13:49:56.776Z,1.63
2023-01-17T13:52:26.668Z,3.40
2023-01-17T13:54:53.375Z,1.92
2023-01-17T13:57:29.350Z,2.78
2023-01-17T13:59:58.312Z,1.00
2023-01-17T14:02:37.866Z,1.70
2023-01-17T14:05:23.364Z,5.03
2023-01-17T14:08:00.935Z,5.03
2023-01-17T14:10:38.720Z,3.65
2023-01-17T14:13:25.123Z,3.38
2023-01-17T14:15:52.392Z,2.15
2023-01-17T14:18:42.715Z,1.35
2023-01-17T14:21:27.579Z,1.95
2023-01-17T14:24:18.106Z,1.65
2023-01-17T14:27:16.368Z,2.42
2023-01-17T14:29:43.902Z,1.98
2023-01-17T14:32:17.546Z,2.25
2023-01-17T14:34:46.735Z,2.05
2023-01-17T14:37:27.370Z,2.50
2023-01-17T14:39:54.195Z,3.60
2023-01-17T14:42:24.931Z,2.42
2023-01-17T14:45:13.616Z,1.88
2023-01-17T14:47:43.973Z,3.47
2023-01-17T14:50:23.111Z,2.08
2023-01-17T14:53:08.287Z,2.63
2023-01-17T14:55:35.360Z,3.45
2023-01-17T14:58:02.128Z,3.45
2023-01-17T15:00:29.504Z,1.92
2023-01-17T15:02:59.365Z,1.40
2023-01-17T15:05:28.729Z,1.60
2023-01-17T15:07:58.141Z,2.92
2023-01-17T15:10:31.378Z,3.15
2023-01-17T15:13:06.247Z,2.90
2023-01-17T15:15:39.589Z,2.25
2023-01-17T15:18:22.553Z,4.28
2023-01-17T15:21:07.978Z,3.97
2023-01-17T15:23:39.290Z,2.45
2023-01-17T15:26:08.393Z,2.70
2023-01-17T15:28:35.667Z,2.38
2023-01-17T15:31:06.508Z,3.67
2023-01-17T15:33:34.380Z,2.05
2023-01-17T15:36:03.813Z,2.75
2023-01-17T15:38:38.497Z,2.10
2023-01-17T15:41:10.298Z,1.80
2023-01-17T15:43:37.945Z,1.95
2023-01-17T15:46:05.049Z,3.65
2023-01-17T15:48:41.353Z,4.43
2023-01-17T15:51:10.848Z,1.98
2023-01-17T15:53:40.771Z,3.08
2023-01-17T15:56:31.778Z,3.15
2023-01-17T15:59:31.155Z,2.45
2023-01-17T16:01:58.583Z,1.05
2023-01-17T16:04:33.811Z,1.50
2023-01-17T16:07:17.536Z,1.90
2023-01-17T16:09:44.803Z,3.97
2023-01-17T16:12:11.994Z,3.25
2023-01-17T16:14:56.400Z,2.42
2023-01-17T16:17:28.511Z,3.65
2023-01-17T16:19:55.235Z,3.25
2023-01-17T16:22:22.062Z,2.22
2023-01-17T16:24:48.782Z,2.88
2023-01-17T16:27:15.509Z,2.08
2023-01-17T16:29:42.205Z,2.90
2023-01-17T16:32:08.937Z,5.28
2023-01-17T16:34:36.245Z,2.50
2023-01-17T16:37:05.875Z,4.35
2023-01-17T16:39:32.603Z,29.40
2023-01-17T16:42:02.705Z,12.90
2023-01-17T16:44:31.068Z,3.85
2023-01-17T16:47:02.035Z,4.45
2023-01-17T16:49:32.538Z,5.05
2023-01-17T16:51:59.525Z,2.92
2023-01-17T16:54:26.957Z,2.83
2023-01-17T16:56:53.911Z,3.85
2023-01-17T16:59:20.644Z,7.18
2023-01-17T17:01:49.213Z,3.05
2023-01-17T17:04:16.269Z,4.57
2023-01-17T17:06:42.979Z,6.25
2023-01-17T17:09:09.752Z,2.75
2023-01-17T17:11:36.533Z,2.42
2023-01-17T17:14:03.898Z,2.60
2023-01-17T17:16:30.741Z,3.10
2023-01-17T17:19:00.254Z,2.60
2023-01-17T17:21:27.917Z,4.40
2023-01-17T17:23:57.016Z,2.97
2023-01-17T17:26:30.861Z,5.95
2023-01-17T17:28:58.107Z,2.92
2023-01-17T17:31:24.997Z,2.65
2023-01-17T17:33:51.816Z,3.63
2023-01-17T17:36:19.205Z,3.47
2023-01-17T17:38:51.742Z,6.70
2023-01-17T17:41:21.088Z,4.65
2023-01-17T17:43:47.973Z,3.22
2023-01-17T17:46:15.088Z,4.20
2023-01-17T17:48:41.835Z,5.72
2023-01-17T17:51:31.245Z,3.08
2023-01-17T17:54:01.267Z,2.97
2023-01-17T17:56:29.465Z,4.53
2023-01-17T17:58:57.333Z,4.47
2023-01-17T18:01:24.340Z,4.63
2023-01-17T18:03:52.736Z,4.15
2023-01-17T18:06:20.465Z,2.20
2023-01-17T18:08:47.837Z,2.72
2023-01-17T18:11:21.297Z,4.38
2023-01-17T18:13:50.516Z,4.20
2023-01-17T18:16:22.580Z,4.32
2023-01-17T18:18:52.093Z,3.15
2023-01-17T18:21:28.153Z,3.30
2023-01-17T18:24:00.433Z,3.60
2023-01-17T18:26:36.582Z,6.00
2023-01-17T18:29:05.931Z,3.33
2023-01-17T18:31:33.365Z,2.70
2023-01-17T18:34:04.489Z,2.33
2023-01-17T18:36:31.628Z,2.67
2023-01-17T18:38:58.699Z,5.15
2023-01-17T18:41:28.668Z,4.90
2023-01-17T18:43:58.284Z,3.55
2023-01-17T18:46:26.482Z,3.63
2023-01-17T18:48:55.991Z,4.80
2023-01-17T18:51:23.049Z,5.35
2023-01-17T18:53:49.911Z,5.20
2023-01-17T18:56:20.009Z,5.93
2023-01-17T18:58:48.842Z,4.60
2023-01-17T19:01:17.856Z,4.68
2023-01-17T19:03:48.078Z,7.40
2023-01-17T19:06:18.428Z,5.30
2023-01-17T19:08:45.272Z,3.45
2023-01-17T19:11:12.698Z,6.25
2023-01-17T19:13:41.830Z,4.53
2023-01-17T19:16:13.875Z,6.03
2023-01-17T19:18:40.828Z,4.43
2023-01-17T19:21:11.184Z,4.30
2023-01-17T19:23:38.826Z,3.85
2023-01-17T19:26:08.351Z,5.30
2023-01-17T19:28:46.281Z,8.52
2023-01-17T19:31:21.010Z,5.63
2023-01-17T19:33:49.682Z,8.43
2023-01-17T19:36:19.471Z,7.93
2023-01-17T19:39:02.907Z,9.63
2023-01-17T19:41:31.082Z,5.32
2023-01-17T19:44:00.636Z,6.55
2023-01-17T19:46:27.940Z,5.65
2023-01-17T19:48:56.799Z,5.25
2023-01-17T19:51:24.588Z,4.70
2023-01-17T19:53:53.569Z,4.10
2023-01-17T19:56:22.890Z,7.05
2023-01-17T19:58:49.657Z,7.05
2023-01-17T20:01:18.785Z,7.72
2023-01-17T20:03:46.500Z,7.70
2023-01-17T20:06:16.053Z,8.80
2023-01-17T20:08:43.617Z,10.38
2023-01-17T20:11:14.802Z,12.52
2023-01-17T20:13:45.669Z,10.38
2023-01-17T20:16:15.110Z,7.95
2023-01-17T20:18:42.701Z,8.43
2023-01-17T20:21:13.047Z,9.93
2023-01-17T20:23:42.923Z,9.05
2023-01-17T20:26:11.004Z,9.00
2023-01-17T20:28:39.888Z,11.60
2023-01-17T20:31:12.744Z,13.60
2023-01-17T20:33:44.456Z,10.02
2023-01-17T20:36:14.886Z,9.95
2023-01-17T20:38:45.804Z,10.80
2023-01-17T20:41:32.968Z,9.93
2023-01-17T20:44:01.531Z,10.00
2023-01-17T20:46:31.795Z,8.48
2023-01-17T20:48:58.806Z,11.80
2023-01-17T20:51:27.758Z,7.47
2023-01-17T20:54:00.771Z,7.68
2023-01-17T20:56:27.687Z,8.88
2023-01-17T20:58:54.944Z,9.68
2023-01-17T21:01:22.797Z,9.00
2023-01-17T21:03:51.773Z,12.38
2023-01-17T21:06:20.702Z,9.30
2023-01-17T21:08:48.164Z,10.75
2023-01-17T21:11:21.036Z,9.10
2023-01-17T21:13:51.316Z,8.57
2023-01-17T21:16:20.396Z,9.38
2023-01-17T21:18:48.205Z,8.43
2023-01-17T21:21:24.229Z,7.13
2023-01-17T21:23:53.006Z,10.27
2023-01-17T21:26:21.606Z,11.13
2023-01-17T21:28:49.426Z,13.15
2023-01-17T21:31:24.710Z,14.45
2023-01-17T21:34:02.931Z,13.13
2023-01-17T21:36:33.132Z,13.45
2023-01-17T21:39:04.763Z,20.58
2023-01-17T21:41:35.101Z,12.50
2023-01-17T21:44:04.752Z,12.77
2023-01-17T21:46:31.785Z,13.38
2023-01-17T21:48:58.548Z,9.85
2023-01-17T21:51:45.654Z,8.52
2023-01-17T21:54:12.632Z,8.55
2023-01-17T21:56:58.129Z,11.82
2023-01-17T21:59:24.896Z,7.70
2023-01-17T22:01:51.595Z,7.78
2023-01-17T22:04:18.394Z,10.93
2023-01-17T22:06:45.179Z,11.43
2023-01-17T22:09:11.928Z,9.55
2023-01-17T22:11:38.686Z,8.15
2023-01-17T22:14:05.613Z,8.65
2023-01-17T22:16:32.437Z,10.50
2023-01-17T22:18:59.496Z,7.18
2023-01-17T22:21:28.339Z,10.55
2023-01-17T22:23:57.229Z,8.90
2023-01-17T22:26:29.396Z,9.27
2023-01-17T22:28:56.554Z,9.98
2023-01-17T22:31:27.702Z,8.73
2023-01-17T22:33:57.069Z,10.82
2023-01-17T22:36:24.751Z,8.20
2023-01-17T22:38:51.901Z,12.30
2023-01-17T22:41:21.877Z,9.68
2023-01-17T22:43:51.285Z,9.20
2023-01-17T22:46:20.527Z,10.65
2023-01-17T22:48:47.633Z,9.43
2023-01-17T22:51:16.256Z,9.60
2023-01-17T22:53:45.357Z,9.77
2023-01-17T22:56:14.500Z,7.75
2023-01-17T22:58:44.784Z,10.07
2023-01-17T23:01:14.419Z,8.77
2023-01-17T23:03:41.964Z,9.20
2023-01-17T23:06:14.990Z,9.07
2023-01-17T23:08:44.418Z,10.30
2023-01-17T23:11:41.548Z,8.80
2023-01-17T23:14:11.753Z,7.40
2023-01-17T23:16:59.221Z,10.60
2023-01-17T23:19:28.444Z,7.40
2023-01-17T23:22:15.882Z,7.18
2023-01-17T23:24:57.416Z,8.57
2023-01-17T23:28:03.695Z,7.35
2023-01-17T23:30:40.956Z,8.30
2023-01-17T23:33:12.937Z,9.48
2023-01-17T23:35:42.621Z,10.35
2023-01-17T23:38:26.408Z,10.35
2023-01-17T23:41:17.085Z,9.43
2023-01-17T23:43:43.857Z,9.00
2023-01-17T23:46:12.577Z,8.90
2023-01-17T23:48:39.435Z,7.10
2023-01-17T23:51:09.305Z,7.90
2023-01-17T23:53:37.969Z,9.07
2023-01-17T23:56:11.287Z,8.45
2023-01-17T23:58:38.188Z,8.52
